Time;durP1;ratioP1;P1;durP2;ratioP2;P2;SDS_P1;SDS_P2;PMS_P1;PMS_P2;Temp;Humidity;BMP_temperature;BMP_pressure;BME280_temperature;BME280_humidity;BME280_pressure;Samples;Min_cycle;Max_cycle;Signal;HPM_P1;HPM_P2
2022/12/19 00:01:26;;;;;;;30.15;14.75;;;-0.20;99.90;;;;;;5128999;28;20036;-78
2022/12/19 00:03:56;;;;;;;26.90;14.25;;;-0.20;99.90;;;;;;5112262;28;20066;-78
2022/12/19 00:06:24;;;;;;;31.05;14.73;;;0.20;99.90;;;;;;5112082;28;20076;-78
2022/12/19 00:08:51;;;;;;;28.20;14.52;;;0.80;99.90;;;;;;5112154;28;20044;-78
2022/12/19 00:11:20;;;;;;;30.60;14.63;;;-0.20;99.90;;;;;;5112194;28;20032;-79
2022/12/19 00:13:47;;;;;;;32.50;15.70;;;-0.10;99.90;;;;;;5096052;28;20040;-78
2022/12/19 00:16:17;;;;;;;32.08;15.95;;;-0.20;99.90;;;;;;5111908;28;20051;-78
2022/12/19 00:18:45;;;;;;;32.35;15.63;;;-0.20;99.90;;;;;;5111193;28;20043;-79
2022/12/19 00:21:14;;;;;;;34.33;16.50;;;-0.10;99.90;;;;;;5092136;28;20492;-78
2022/12/19 00:23:40;;;;;;;34.33;16.13;;;-0.10;99.90;;;;;;5075286;28;20415;-78
2022/12/19 00:26:13;;;;;;;31.60;16.15;;;-0.10;99.90;;;;;;5075087;28;20041;-78
2022/12/19 00:28:42;;;;;;;33.75;15.95;;;1.10;99.90;;;;;;5091647;28;20519;-78
2022/12/19 00:31:09;;;;;;;29.65;15.00;;;0.60;99.90;;;;;;5075140;28;20377;-79
2022/12/19 00:33:35;;;;;;;32.72;14.95;;;0.70;99.90;;;;;;5074926;28;20447;-78
2022/12/19 00:36:05;;;;;;;30.98;15.73;;;-0.10;99.90;;;;;;5075377;28;20037;-79
2022/12/19 00:38:33;;;;;;;31.88;15.25;;;0.00;99.90;;;;;;5091217;28;20072;-79
2022/12/19 00:41:10;;;;;;;31.05;14.85;;;1.10;99.90;;;;;;5074921;28;20044;-78
2022/12/19 00:43:37;;;;;;;32.13;15.57;;;0.80;99.90;;;;;;5090946;28;20504;-78
2022/12/19 00:46:05;;;;;;;35.15;16.38;;;0.20;99.90;;;;;;5091638;28;20037;-78
2022/12/19 00:48:32;;;;;;;29.13;14.73;;;0.00;99.90;;;;;;5091211;28;20040;-79
2022/12/19 00:51:11;;;;;;;34.15;16.88;;;1.00;99.90;;;;;;5091368;28;20105;-78
2022/12/19 00:53:38;;;;;;;37.42;15.93;;;0.50;99.90;;;;;;5099981;28;20085;-79
2022/12/19 00:56:12;;;;;;;36.88;16.10;;;1.00;99.90;;;;;;5094566;28;20040;-79
2022/12/19 00:58:39;;;;;;;30.38;14.32;;;0.10;99.90;;;;;;5111307;28;20511;-79
2022/12/19 01:01:08;;;;;;;30.55;15.95;;;1.00;99.90;;;;;;5094428;28;20093;-79
2022/12/19 01:03:34;;;;;;;32.08;15.40;;;0.10;99.90;;;;;;5074319;28;20036;-79
2022/12/19 01:06:02;;;;;;;33.30;15.55;;;0.40;99.90;;;;;;5094682;28;20488;-79
2022/12/19 01:08:29;;;;;;;29.85;14.60;;;0.10;99.90;;;;;;5094457;28;20122;-79
2022/12/19 01:10:55;;;;;;;31.00;15.40;;;0.20;99.90;;;;;;5077743;28;20123;-78
2022/12/19 01:13:24;;;;;;;31.00;15.60;;;0.20;99.90;;;;;;5094409;28;20051;-79
2022/12/19 01:15:51;;;;;;;33.03;15.52;;;0.20;99.90;;;;;;5110369;28;20040;-79
2022/12/19 01:18:18;;;;;;;30.45;15.10;;;1.10;99.90;;;;;;5110128;28;20040;-79
2022/12/19 01:20:47;;;;;;;31.75;14.85;;;1.30;99.90;;;;;;5073880;28;20093;-79
2022/12/19 01:23:15;;;;;;;34.35;15.32;;;0.30;99.90;;;;;;5074456;28;20048;-79
2022/12/19 01:25:47;;;;;;;29.73;15.35;;;1.60;99.90;;;;;;5074159;28;20039;-79
2022/12/19 01:28:14;;;;;;;31.73;15.20;;;1.50;99.90;;;;;;5090606;28;20404;-78
2022/12/19 01:30:41;;;;;;;33.33;14.85;;;1.00;99.90;;;;;;5074064;28;20123;-79
2022/12/19 01:33:14;;;;;;;32.80;15.55;;;0.60;99.90;;;;;;5073908;28;20198;-79
2022/12/19 01:35:42;;;;;;;30.65;15.43;;;0.30;99.90;;;;;;5090279;28;20386;-79
2022/12/19 01:38:13;;;;;;;33.15;15.65;;;0.30;99.90;;;;;;5107330;28;20044;-79
2022/12/19 01:40:39;;;;;;;30.70;14.95;;;1.50;99.90;;;;;;5090361;28;20044;-79
2022/12/19 01:43:12;;;;;;;29.15;15.05;;;0.40;99.90;;;;;;5073459;28;20420;-79
2022/12/19 01:45:39;;;;;;;30.90;15.63;;;1.40;99.90;;;;;;5103685;28;20047;-79
2022/12/19 01:48:26;;;;;;;30.70;14.57;;;1.50;99.90;;;;;;5093572;28;20485;-79
2022/12/19 01:50:59;;;;;;;30.25;14.77;;;0.40;99.90;;;;;;5110288;28;20044;-79
2022/12/19 01:53:48;;;;;;;31.63;15.40;;;1.60;99.90;;;;;;5110211;28;20135;-78
2022/12/19 01:56:21;;;;;;;30.67;14.98;;;0.30;99.90;;;;;;5109271;28;20044;-79
2022/12/19 01:58:50;;;;;;;32.70;14.98;;;0.40;99.90;;;;;;5110042;28;20457;-79
2022/12/19 02:01:17;;;;;;;32.45;15.35;;;1.30;99.90;;;;;;5110285;28;20135;-79
2022/12/19 02:03:45;;;;;;;30.48;14.88;;;0.40;99.90;;;;;;5109752;28;20122;-79
2022/12/19 02:06:16;;;;;;;29.40;14.07;;;0.40;99.90;;;;;;5073399;28;20378;-79
2022/12/19 02:08:46;;;;;;;30.95;15.05;;;0.50;99.90;;;;;;5106524;28;20036;-79
2022/12/19 02:11:13;;;;;;;32.40;14.57;;;1.40;99.90;;;;;;5110215;28;20032;-79
2022/12/19 02:13:40;;;;;;;32.15;15.07;;;0.50;99.90;;;;;;5076561;28;20383;-79
2022/12/19 02:16:25;;;;;;;33.85;15.75;;;0.50;99.90;;;;;;5127022;28;20055;-78
2022/12/19 02:19:07;;;;;;;29.42;14.90;;;0.50;99.90;;;;;;5109846;28;20043;-79
2022/12/19 02:21:37;;;;;;;34.35;14.98;;;0.50;99.90;;;;;;5113986;28;20390;-79
2022/12/19 02:24:38;;;;;;;29.55;14.00;;;0.60;99.90;;;;;;5089850;28;20041;-79
2022/12/19 02:27:51;;;;;;;33.72;16.17;;;0.60;99.90;;;;;;5106487;28;20500;-79
2022/12/19 02:30:41;;;;;;;37.45;15.73;;;0.60;99.90;;;;;;5089613;28;20047;-79
2022/12/19 02:33:29;;;;;;;31.17;14.98;;;1.80;99.90;;;;;;5089900;28;20169;-79
2022/12/19 02:36:06;;;;;;;32.50;15.13;;;0.60;99.90;;;;;;5089231;28;20047;-79
2022/12/19 02:38:44;;;;;;;37.00;15.55;;;0.70;99.90;;;;;;5089622;28;20037;-78
2022/12/19 02:41:20;;;;;;;33.28;16.05;;;0.70;99.90;;;;;;5089520;28;20055;-79
2022/12/19 02:43:48;;;;;;;;;;;1.40;99.90;;;;;;5089360;28;20067;-79
2022/12/19 02:46:17;;;;;;;37.53;16.50;;;0.70;99.90;;;;;;5089436;28;19916;-79
2022/12/19 02:48:45;;;;;;;34.28;15.88;;;2.10;99.90;;;;;;5089248;28;20040;-79
2022/12/19 02:51:12;;;;;;;37.08;15.95;;;2.00;99.90;;;;;;5073187;28;20043;-79
2022/12/19 02:53:39;;;;;;;33.95;16.48;;;2.00;99.90;;;;;;5072677;28;20500;-79
2022/12/19 02:56:49;;;;;;;35.40;15.90;;;0.80;99.90;;;;;;5072751;28;20044;-79
2022/12/19 03:00:03;;;;;;;33.47;15.65;;;0.80;99.90;;;;;;5106172;28;20047;-79
2022/12/19 03:02:44;;;;;;;33.58;15.15;;;0.80;99.90;;;;;;5088956;28;20079;-79
2022/12/19 03:05:21;;;;;;;38.78;16.45;;;0.80;99.90;;;;;;5088979;28;20127;-79
2022/12/19 03:07:59;;;;;;;37.20;16.00;;;0.80;99.90;;;;;;5100452;28;20115;-79
2022/12/19 03:10:40;;;;;;;35.10;16.75;;;0.80;99.90;;;;;;5109778;28;20032;-79
2022/12/19 03:13:11;;;;;;;36.28;16.77;;;0.80;99.90;;;;;;5109584;28;20492;-80
2022/12/19 03:15:39;;;;;;;36.33;16.55;;;1.80;99.90;;;;;;5109310;28;20515;-79
2022/12/19 03:18:07;;;;;;;36.95;16.75;;;1.00;99.90;;;;;;5108980;28;20527;-79
2022/12/19 03:21:06;;;;;;;42.17;18.60;;;1.20;99.90;;;;;;5125973;28;20051;-79
2022/12/19 03:23:33;;;;;;;38.55;17.42;;;0.80;99.90;;;;;;5076837;28;20427;-79
2022/12/19 03:26:22;;;;;;;42.13;16.83;;;0.80;99.90;;;;;;5072572;28;20063;-79
2022/12/19 03:28:50;;;;;;;40.50;17.85;;;0.80;99.90;;;;;;5088735;28;20040;-80
2022/12/19 03:31:22;;;;;;;36.38;17.17;;;2.10;99.90;;;;;;5089142;28;20048;-79
2022/12/19 03:33:55;;;;;;;38.22;16.88;;;1.70;99.90;;;;;;5088804;28;20446;-80
2022/12/19 03:36:30;;;;;;;40.72;17.33;;;1.10;99.90;;;;;;5088780;28;20047;-79
2022/12/19 03:39:00;;;;;;;38.15;17.55;;;0.80;99.90;;;;;;5088841;28;20102;-80
2022/12/19 03:44:14;;;;;;;38.40;16.80;;;1.50;99.90;;;;;;5094572;28;20420;-79
2022/12/19 03:46:51;;;;;;;39.60;17.45;;;1.20;99.90;;;;;;5076154;28;20055;-79
2022/12/19 03:49:18;;;;;;;42.45;18.40;;;1.50;99.90;;;;;;5103077;28;20052;-79
2022/12/19 03:51:57;;;;;;;35.33;17.23;;;0.80;99.90;;;;;;5075606;28;20044;-79
2022/12/19 03:54:33;;;;;;;41.40;18.67;;;1.80;99.90;;;;;;5092110;28;20098;-79
2022/12/19 03:57:08;;;;;;;39.05;17.77;;;0.80;99.90;;;;;;5112149;28;20403;-80
2022/12/19 03:59:50;;;;;;;45.75;17.88;;;0.90;99.90;;;;;;5112524;28;20040;-79
2022/12/19 04:02:19;;;;;;;42.78;17.83;;;0.90;99.90;;;;;;5112271;28;20044;-79
2022/12/19 04:04:53;;;;;;;40.65;17.42;;;0.90;99.90;;;;;;5112454;28;20037;-79
2022/12/19 04:07:21;;;;;;;46.30;18.80;;;0.90;99.90;;;;;;5094012;28;20036;-79
2022/12/19 04:09:49;;;;;;;46.20;17.77;;;2.00;99.90;;;;;;5075672;28;20552;-79
2022/12/19 04:12:24;;;;;;;41.05;18.27;;;1.00;99.90;;;;;;5091955;28;20041;-79
2022/12/19 04:14:51;;;;;;;42.45;18.20;;;1.10;99.90;;;;;;5091938;28;20051;-79
2022/12/19 04:17:32;;;;;;;41.03;17.73;;;2.10;99.90;;;;;;5075338;28;20037;-79
2022/12/19 04:20:21;;;;;;;50.92;19.35;;;1.10;99.90;;;;;;5091654;28;20074;-79
2022/12/19 04:23:01;;;;;;;44.35;18.52;;;1.10;99.90;;;;;;5075252;28;20048;-79
2022/12/19 04:25:38;;;;;;;38.83;17.42;;;1.10;99.90;;;;;;5092496;28;20102;-79
2022/12/19 04:28:14;;;;;;;43.30;18.88;;;1.30;99.90;;;;;;5110386;28;20047;-79
2022/12/19 04:30:41;;;;;;;;;;;1.10;99.90;;;;;;5129302;28;20043;-79
2022/12/19 04:33:08;;;;;;;42.88;18.27;;;2.40;99.90;;;;;;5128357;28;19938;-79
2022/12/19 04:35:35;;;;;;;45.80;19.08;;;1.50;99.90;;;;;;5111974;28;20040;-79
2022/12/19 04:38:02;;;;;;;45.65;18.20;;;1.20;99.90;;;;;;5078336;28;20085;-79
2022/12/19 04:40:29;;;;;;;46.47;19.27;;;1.20;99.90;;;;;;5111758;28;20405;-79
2022/12/19 04:42:56;;;;;;;41.78;18.65;;;1.60;99.90;;;;;;5111335;28;20047;-79
2022/12/19 04:45:22;;;;;;;45.65;18.85;;;2.20;99.90;;;;;;5090886;28;20053;-79
2022/12/19 04:47:49;;;;;;;57.88;20.02;;;2.20;99.90;;;;;;5108198;28;20041;-79
2022/12/19 04:50:16;;;;;;;43.35;19.60;;;1.30;99.90;;;;;;5090890;28;20036;-79
2022/12/19 04:52:42;;;;;;;47.10;19.77;;;2.20;99.90;;;;;;5090260;28;20400;-79
2022/12/19 04:55:09;;;;;;;45.38;19.75;;;1.40;99.90;;;;;;5121944;28;20076;-79
2022/12/19 04:57:36;;;;;;;46.72;18.60;;;2.30;99.90;;;;;;5094783;28;20044;-79
2022/12/19 05:00:05;;;;;;;45.15;19.42;;;1.40;99.90;;;;;;5094718;28;20063;-79
2022/12/19 05:02:32;;;;;;;50.60;20.02;;;1.50;99.90;;;;;;5096728;28;20413;-79
2022/12/19 05:04:59;;;;;;;46.33;20.30;;;2.00;99.90;;;;;;5107929;28;20033;-79
2022/12/19 05:07:25;;;;;;;45.60;18.92;;;2.60;99.90;;;;;;5074303;28;20063;-79
2022/12/19 05:09:52;;;;;;;45.50;20.23;;;1.50;99.90;;;;;;5074539;28;20127;-79
2022/12/19 05:12:19;;;;;;;47.97;20.13;;;2.70;99.90;;;;;;5084974;28;20051;-79
2022/12/19 05:14:45;;;;;;;44.78;19.60;;;2.70;99.90;;;;;;5077826;28;20040;-79
2022/12/19 05:17:12;;;;;;;45.97;19.10;;;2.70;99.90;;;;;;5094337;28;20051;-79
2022/12/19 05:19:39;;;;;;;43.33;19.38;;;2.80;99.90;;;;;;5077443;28;20143;-79
2022/12/19 05:22:06;;;;;;;44.70;19.40;;;1.60;99.90;;;;;;5073622;28;20123;-80
2022/12/19 05:24:32;;;;;;;47.47;20.10;;;2.30;99.90;;;;;;5090304;28;20101;-79
2022/12/19 05:26:59;;;;;;;46.65;19.83;;;1.90;99.90;;;;;;5090446;28;20128;-79
2022/12/19 05:29:25;;;;;;;45.50;19.65;;;2.80;99.90;;;;;;5106837;28;20477;-80
2022/12/19 05:31:52;;;;;;;48.10;19.75;;;2.90;99.90;;;;;;5074068;28;20068;-80
2022/12/19 05:34:19;;;;;;;50.92;20.13;;;2.10;99.90;;;;;;5106715;28;20119;-80
2022/12/19 05:36:46;;;;;;;42.83;19.88;;;2.20;99.90;;;;;;5092742;28;20085;-80
2022/12/19 05:39:12;;;;;;;47.85;20.63;;;1.80;99.90;;;;;;5093950;28;20496;-80
2022/12/19 05:41:39;;;;;;;47.08;18.70;;;1.80;99.90;;;;;;5077166;28;20039;-79
2022/12/19 05:44:06;;;;;;;43.03;19.30;;;2.80;99.90;;;;;;5110001;28;20048;-80
2022/12/19 05:46:32;;;;;;;45.70;19.05;;;2.80;99.90;;;;;;5077314;28;20086;-80
2022/12/19 05:48:59;;;;;;;43.03;19.27;;;1.90;99.90;;;;;;5082465;28;20032;-80
2022/12/19 05:51:26;;;;;;;51.75;20.30;;;2.40;99.90;;;;;;5093344;28;20046;-80
2022/12/19 05:53:53;;;;;;;51.10;19.98;;;2.30;99.90;;;;;;5130620;28;20506;-80
2022/12/19 05:56:21;;;;;;;55.85;22.33;;;1.90;99.90;;;;;;5113667;28;20035;-80
2022/12/19 05:58:48;;;;;;;56.78;22.73;;;1.90;99.90;;;;;;5130599;28;20127;-80
2022/12/19 06:01:21;;;;;;;46.97;20.35;;;2.00;99.90;;;;;;5113437;28;20188;-80
2022/12/19 06:03:48;;;;;;;48.75;19.27;;;1.90;99.90;;;;;;5130203;28;20122;-80
2022/12/19 06:06:17;;;;;;;53.72;19.25;;;1.90;99.90;;;;;;5126028;28;20449;-80
2022/12/19 06:08:44;;;;;;;43.58;18.05;;;3.00;99.90;;;;;;5077039;28;20094;-80
2022/12/19 06:11:12;;;;;;;42.97;18.85;;;2.00;99.90;;;;;;5110035;28;20495;-80
2022/12/19 06:13:40;;;;;;;54.75;20.52;;;2.00;99.90;;;;;;5110380;28;20050;-80
2022/12/19 06:16:15;;;;;;;50.75;18.92;;;2.10;99.90;;;;;;5093379;28;20036;-79
2022/12/19 06:18:43;;;;;;;40.60;18.77;;;2.00;99.90;;;;;;5089775;28;20040;-80
2022/12/19 06:21:15;;;;;;;43.10;18.67;;;2.10;99.90;;;;;;5072889;28;20689;-80
2022/12/19 06:23:42;;;;;;;45.22;19.45;;;2.20;99.90;;;;;;5078664;28;20510;-80
2022/12/19 06:26:11;;;;;;;42.50;17.88;;;3.20;99.90;;;;;;5093378;28;20038;-80
2022/12/19 06:28:38;;;;;;;45.40;19.73;;;2.40;99.90;;;;;;5110022;28;20438;-80
2022/12/19 06:31:05;;;;;;;39.00;19.13;;;2.50;99.90;;;;;;5076748;28;20046;-80
2022/12/19 06:33:33;;;;;;;45.60;20.00;;;2.20;99.90;;;;;;5092787;28;20966;-80
2022/12/19 06:36:06;;;;;;;45.70;18.70;;;2.20;99.90;;;;;;5076205;28;20040;-80
2022/12/19 06:38:34;;;;;;;48.35;19.25;;;2.20;99.90;;;;;;5107515;28;20516;-80
2022/12/19 06:43:48;;;;;;;48.80;19.20;;;3.20;99.90;;;;;;5126090;28;20116;-80
2022/12/19 06:46:14;;;;;;;44.22;18.13;;;2.20;99.90;;;;;;5108857;28;20035;-80
2022/12/19 06:48:41;;;;;;;44.95;19.42;;;2.20;99.90;;;;;;5072768;28;20127;-80
2022/12/19 06:51:08;;;;;;;43.20;19.02;;;2.20;99.90;;;;;;5072492;28;20036;-80
2022/12/19 06:53:34;;;;;;;42.83;19.02;;;2.30;99.90;;;;;;5090637;28;20100;-81
2022/12/19 06:56:02;;;;;;;42.75;19.10;;;2.40;99.90;;;;;;5056890;28;20040;-80
2022/12/19 06:58:29;;;;;;;54.00;23.23;;;2.40;99.90;;;;;;5089304;28;20484;-80
2022/12/19 07:00:55;;;;;;;39.35;18.17;;;2.40;99.90;;;;;;5088944;28;20043;-80
2022/12/19 07:03:28;;;;;;;52.05;22.58;;;2.40;99.90;;;;;;5088774;28;20041;-80
2022/12/19 07:05:54;;;;;;;44.70;19.95;;;2.40;99.90;;;;;;5093543;28;20060;-80
2022/12/19 07:08:21;;;;;;;49.22;21.02;;;3.10;99.90;;;;;;5105570;28;20037;-80
2022/12/19 07:10:48;;;;;;;58.00;25.10;;;2.50;99.90;;;;;;5089128;28;20041;-80
2022/12/19 07:13:14;;;;;;;61.25;24.35;;;3.20;99.90;;;;;;5106469;28;20040;-80
2022/12/19 07:15:41;;;;;;;42.70;17.95;;;3.00;99.90;;;;;;5094887;28;20036;-81
2022/12/19 07:18:09;;;;;;;46.17;17.52;;;2.70;99.90;;;;;;5113211;28;20070;-80
2022/12/19 07:20:38;;;;;;;45.78;17.55;;;3.40;99.90;;;;;;5096419;28;20126;-81
2022/12/19 07:23:06;;;;;;;44.50;17.63;;;3.60;99.90;;;;;;5127985;28;20067;-81
2022/12/19 07:25:33;;;;;;;48.67;19.23;;;2.80;99.90;;;;;;5112994;28;20553;-81
2022/12/19 07:28:00;;;;;;;40.75;17.50;;;2.60;99.90;;;;;;5096250;28;20039;-81
2022/12/19 07:30:27;;;;;;;39.35;16.55;;;3.30;99.90;;;;;;5079832;28;20497;-81
2022/12/19 07:32:53;;;;;;;40.40;16.50;;;2.80;99.90;;;;;;5087532;28;20049;-81
2022/12/19 07:35:21;;;;;;;35.80;17.92;;;2.70;99.90;;;;;;5087826;28;20046;-81
2022/12/19 07:37:49;;;;;;;35.25;16.48;;;2.70;99.90;;;;;;5080116;28;20082;-81
2022/12/19 07:40:17;;;;;;;39.72;17.05;;;3.70;99.90;;;;;;5112803;28;20040;-81
2022/12/19 07:42:44;;;;;;;34.55;16.63;;;3.90;99.90;;;;;;5095795;28;20036;-81
2022/12/19 07:45:11;;;;;;;38.30;16.45;;;3.30;99.90;;;;;;5112476;28;20075;-81
2022/12/19 07:47:38;;;;;;;40.47;15.80;;;3.50;99.90;;;;;;5114070;28;20040;-80
2022/12/19 07:50:05;;;;;;;36.40;16.75;;;3.30;99.90;;;;;;5127529;28;20047;-81
2022/12/19 07:52:31;;;;;;;40.10;16.27;;;2.90;99.90;;;;;;5099445;28;20069;-81
2022/12/19 07:54:58;;;;;;;32.17;16.27;;;3.80;99.90;;;;;;5099822;28;20039;-81
2022/12/19 07:57:25;;;;;;;36.42;15.65;;;3.00;99.90;;;;;;5099194;28;20059;-81
2022/12/19 07:59:51;;;;;;;37.65;16.25;;;3.00;99.90;;;;;;5098351;28;20491;-80
2022/12/19 08:02:18;;;;;;;35.05;15.45;;;3.70;99.90;;;;;;5086189;28;20502;-81
2022/12/19 08:04:45;;;;;;;39.25;16.00;;;3.90;99.90;;;;;;5081702;28;20062;-81
2022/12/19 08:07:11;;;;;;;34.50;14.93;;;3.50;99.90;;;;;;5107072;28;20102;-81
2022/12/19 08:09:38;;;;;;;32.63;15.05;;;4.20;99.90;;;;;;5102001;28;20043;-81
2022/12/19 08:12:05;;;;;;;37.55;15.07;;;4.30;99.90;;;;;;5105989;28;20048;-81
2022/12/19 08:14:32;;;;;;;34.28;14.65;;;3.30;99.90;;;;;;5086281;28;20036;-81
2022/12/19 08:16:58;;;;;;;27.65;13.85;;;3.30;99.90;;;;;;5095125;28;20040;-81
2022/12/19 08:19:25;;;;;;;33.55;14.23;;;3.30;99.90;;;;;;5097498;28;20123;-81
2022/12/19 08:21:52;;;;;;;28.35;13.82;;;3.60;99.90;;;;;;5077637;28;20044;-81
2022/12/19 08:24:18;;;;;;;31.42;13.77;;;4.20;99.90;;;;;;5111246;28;20035;-81
2022/12/19 08:26:45;;;;;;;36.08;13.57;;;3.50;99.90;;;;;;5115136;28;20042;-80
2022/12/19 08:29:12;;;;;;;30.85;13.82;;;3.50;99.90;;;;;;5132097;28;20078;-79
2022/12/19 08:31:39;;;;;;;29.98;13.52;;;3.60;99.90;;;;;;5122138;28;20378;-80
2022/12/19 08:34:06;;;;;;;33.25;14.27;;;3.70;99.90;;;;;;5077731;28;20047;-80
2022/12/19 08:36:33;;;;;;;32.45;13.68;;;4.50;99.90;;;;;;5099351;28;20085;-80
2022/12/19 08:38:59;;;;;;;31.48;13.98;;;3.70;99.90;;;;;;5097546;28;20500;-80
2022/12/19 08:41:26;;;;;;;26.35;12.52;;;3.80;99.90;;;;;;5102171;28;20040;-80
2022/12/19 08:43:53;;;;;;;32.58;13.48;;;3.80;99.90;;;;;;5083766;28;20056;-80
2022/12/19 08:46:21;;;;;;;27.27;13.02;;;3.80;99.90;;;;;;5123968;28;20231;-80
2022/12/19 08:48:48;;;;;;;25.45;12.95;;;4.60;99.90;;;;;;5104212;28;20035;-80
2022/12/19 08:51:16;;;;;;;29.55;13.23;;;3.90;99.90;;;;;;5096956;28;20032;-80
2022/12/19 08:53:43;;;;;;;25.67;12.00;;;4.40;99.90;;;;;;5109934;28;20042;-80
2022/12/19 08:56:16;;;;;;;27.17;12.88;;;4.20;99.90;;;;;;5088385;28;20035;-80
2022/12/19 08:58:44;;;;;;;24.98;12.07;;;4.00;99.90;;;;;;5110020;28;20040;-80
2022/12/19 09:01:17;;;;;;;28.63;12.63;;;4.10;99.90;;;;;;5117017;28;20039;-81
2022/12/19 09:03:45;;;;;;;27.90;12.70;;;4.10;99.90;;;;;;5107365;28;20040;-80
2022/12/19 09:06:13;;;;;;;24.00;12.15;;;4.10;99.90;;;;;;5122969;28;20036;-80
2022/12/19 09:08:40;;;;;;;26.77;12.55;;;4.60;99.90;;;;;;5094445;28;20510;-80
2022/12/19 09:11:10;;;;;;;25.02;12.38;;;4.90;99.90;;;;;;5111053;28;20047;-80
2022/12/19 09:13:38;;;;;;;28.75;12.18;;;4.20;99.90;;;;;;5127863;28;20260;-81
2022/12/19 09:16:12;;;;;;;27.38;13.80;;;4.20;99.90;;;;;;5104602;28;20403;-80
2022/12/19 09:18:40;;;;;;;25.40;11.95;;;4.20;99.90;;;;;;5095604;28;20044;-80
2022/12/19 09:21:07;;;;;;;24.65;12.43;;;4.20;99.90;;;;;;5103727;28;20456;-81
2022/12/19 09:23:34;;;;;;;25.42;13.45;;;4.20;99.90;;;;;;5119010;28;20042;-81
2022/12/19 09:26:08;;;;;;;26.65;12.32;;;4.40;99.90;;;;;;5109985;28;20028;-80
2022/12/19 09:28:37;;;;;;;23.83;12.35;;;4.30;99.90;;;;;;5091041;28;20044;-81
2022/12/19 09:31:06;;;;;;;25.65;12.18;;;4.30;99.90;;;;;;5109809;28;20036;-81
2022/12/19 09:33:34;;;;;;;20.73;11.20;;;4.40;99.90;;;;;;5110395;28;20111;-81
2022/12/19 09:36:01;;;;;;;23.05;11.00;;;4.50;99.90;;;;;;5110436;28;20036;-80
2022/12/19 09:38:30;;;;;;;22.67;12.15;;;4.50;99.90;;;;;;5079945;28;20411;-80
2022/12/19 09:40:56;;;;;;;22.20;11.75;;;4.50;99.90;;;;;;5093028;28;20488;-80
2022/12/19 09:44:04;;;;;;;20.80;11.10;;;5.00;99.90;;;;;;5109600;28;20051;-81
2022/12/19 09:46:48;;;;;;;26.30;12.30;;;4.60;99.90;;;;;;5079100;28;20049;-81
2022/12/19 09:49:24;;;;;;;24.55;11.93;;;4.60;99.90;;;;;;5097819;28;20484;-81
2022/12/19 09:51:57;;;;;;;;;;;4.70;99.90;;;;;;5109488;28;20491;-81
2022/12/19 09:54:32;;;;;;;22.65;11.65;;;4.70;99.90;;;;;;5109579;28;19916;-80
2022/12/19 09:57:04;;;;;;;22.40;11.68;;;4.70;99.90;;;;;;5126633;28;20105;-81
2022/12/19 09:59:49;;;;;;;25.73;12.20;;;4.70;99.90;;;;;;5109366;28;20063;-81
2022/12/19 10:02:44;;;;;;;22.48;13.18;;;4.80;99.90;;;;;;5109800;28;20081;-80
2022/12/19 10:05:32;;;;;;;29.45;13.77;;;4.80;99.90;;;;;;5109596;28;20523;-80
2022/12/19 10:08:00;;;;;;;24.90;13.32;;;4.80;99.90;;;;;;5120773;28;20090;-81
2022/12/19 10:10:56;;;;;;;25.95;14.15;;;4.90;99.90;;;;;;5098853;28;20050;-81
2022/12/19 10:13:28;;;;;;;26.25;13.85;;;4.90;99.90;;;;;;5109307;28;20123;-81
2022/12/19 10:16:01;;;;;;;27.77;13.70;;;5.00;99.90;;;;;;5126074;28;20050;-81
2022/12/19 10:18:38;;;;;;;32.80;17.08;;;5.00;99.90;;;;;;5112345;28;20126;-81
2022/12/19 10:21:13;;;;;;;33.90;16.27;;;5.10;99.90;;;;;;5115680;28;20047;-81
2022/12/19 10:23:46;;;;;;;30.58;16.73;;;5.00;99.90;;;;;;5089721;28;20493;-81
2022/12/19 10:26:19;;;;;;;30.33;14.93;;;5.00;99.90;;;;;;5089444;28;20051;-81
2022/12/19 10:29:06;;;;;;;30.55;14.95;;;5.00;99.90;;;;;;5073221;28;20043;-81
2022/12/19 10:31:40;;;;;;;35.38;15.30;;;5.10;99.90;;;;;;5107822;28;20036;-81
2022/12/19 10:34:22;;;;;;;36.17;16.42;;;5.10;99.90;;;;;;5125684;28;20051;-81
2022/12/19 10:36:57;;;;;;;28.40;14.93;;;5.10;99.90;;;;;;5146061;28;20047;-81
2022/12/19 10:39:40;;;;;;;28.60;14.18;;;5.30;99.90;;;;;;5129563;28;20036;-81
2022/12/19 10:42:29;;;;;;;34.70;15.05;;;5.20;99.90;;;;;;5128518;28;20043;-81
2022/12/19 10:45:00;;;;;;;28.88;14.45;;;5.20;99.90;;;;;;5096960;28;20053;-81
2022/12/19 10:47:27;;;;;;;27.48;13.52;;;5.30;99.90;;;;;;5089337;28;20505;-81
2022/12/19 10:49:53;;;;;;;30.95;14.60;;;5.30;99.90;;;;;;5102538;28;20047;-82
2022/12/19 10:52:49;;;;;;;30.67;14.43;;;5.30;99.90;;;;;;5076337;28;20044;-82
2022/12/19 10:55:49;;;;;;;24.02;13.27;;;5.30;99.90;;;;;;5130308;28;20080;-82
2022/12/19 10:58:16;;;;;;;26.25;13.50;;;5.30;99.90;;;;;;5133487;28;20047;-81
2022/12/19 11:01:04;;;;;;;28.33;14.45;;;5.60;99.90;;;;;;5132924;28;20055;-81
2022/12/19 11:03:32;;;;;;;24.98;13.00;;;5.30;99.90;;;;;;5110493;28;20082;-81
2022/12/19 11:06:01;;;;;;;26.20;13.18;;;5.40;99.90;;;;;;5141490;28;20035;-81
2022/12/19 11:08:35;;;;;;;26.65;13.75;;;5.50;99.90;;;;;;5097547;28;20075;-81
2022/12/19 11:11:05;;;;;;;31.35;12.77;;;5.50;99.90;;;;;;5119448;28;20506;-82
2022/12/19 11:13:37;;;;;;;25.33;12.75;;;5.60;99.90;;;;;;5100583;28;20043;-80
2022/12/19 11:16:06;;;;;;;27.10;12.75;;;5.50;99.90;;;;;;5132272;28;20065;-81
2022/12/19 11:18:37;;;;;;;25.42;11.88;;;5.50;99.90;;;;;;5099619;28;20131;-82
2022/12/19 11:21:30;;;;;;;24.23;12.88;;;5.60;99.90;;;;;;5119568;28;20043;-82
2022/12/19 11:24:10;;;;;;;20.55;11.77;;;5.60;99.90;;;;;;5112761;28;20078;-81
2022/12/19 11:26:45;;;;;;;20.50;11.57;;;5.60;99.90;;;;;;5114549;28;20496;-81
2022/12/19 11:29:37;;;;;;;21.70;12.18;;;5.60;99.90;;;;;;5131749;28;20450;-81
2022/12/19 11:32:04;;;;;;;24.00;13.05;;;5.60;99.90;;;;;;5131175;28;20038;-81
2022/12/19 11:34:34;;;;;;;22.88;11.90;;;5.60;99.90;;;;;;5092678;28;20039;-82
2022/12/19 11:37:07;;;;;;;21.33;11.27;;;5.70;99.90;;;;;;5108709;28;20043;-81
2022/12/19 11:39:46;;;;;;;20.17;10.82;;;5.60;99.90;;;;;;5115935;28;20483;-81
2022/12/19 11:42:28;;;;;;;24.67;12.07;;;5.60;99.90;;;;;;5101854;28;20447;-81
2022/12/19 11:45:33;;;;;;;23.27;10.73;;;5.70;99.90;;;;;;5112191;28;20048;-82
2022/12/19 11:48:12;;;;;;;20.25;10.73;;;5.70;99.90;;;;;;5034707;28;20068;-80
2022/12/19 11:51:19;;;;;;;20.95;11.45;;;5.70;99.90;;;;;;5101832;28;20178;-81
2022/12/19 11:54:15;;;;;;;19.52;10.40;;;5.70;99.90;;;;;;5050681;28;20838;-81
2022/12/19 11:56:42;;;;;;;19.90;11.77;;;5.80;99.90;;;;;;5087854;28;20798;-81
2022/12/19 11:59:23;;;;;;;20.20;11.10;;;6.10;99.90;;;;;;5091388;28;20294;-82
2022/12/19 12:02:22;;;;;;;21.50;10.63;;;5.80;99.90;;;;;;5108149;28;20044;-81
2022/12/19 12:05:04;;;;;;;17.83;9.57;;;5.90;99.90;;;;;;5067471;28;20048;-81
2022/12/19 12:07:36;;;;;;;20.63;10.48;;;5.90;99.90;;;;;;5100900;28;20036;-81
2022/12/19 12:10:18;;;;;;;20.58;11.35;;;5.90;99.90;;;;;;5110707;28;20032;-81
2022/12/19 12:13:08;;;;;;;20.30;10.80;;;6.00;99.90;;;;;;5111091;28;20085;-81
2022/12/19 12:15:57;;;;;;;19.05;11.65;;;6.00;99.90;;;;;;5110882;28;20514;-81
2022/12/19 12:18:42;;;;;;;21.52;11.63;;;6.00;99.90;;;;;;5111232;28;20063;-81
2022/12/19 12:21:25;;;;;;;22.90;11.88;;;6.00;99.90;;;;;;5111267;28;20507;-81
2022/12/19 12:24:22;;;;;;;21.83;10.98;;;6.00;99.90;;;;;;5111505;28;20047;-81
2022/12/19 12:27:15;;;;;;;21.75;11.98;;;6.00;99.90;;;;;;5111046;28;20595;-81
2022/12/19 12:29:57;;;;;;;20.15;11.55;;;6.00;99.90;;;;;;5124822;28;20046;-81
2022/12/19 12:33:08;;;;;;;20.90;11.48;;;6.00;99.90;;;;;;5108631;28;20040;-81
2022/12/19 12:35:38;;;;;;;22.02;11.40;;;6.00;99.90;;;;;;5112949;28;20044;-81
2022/12/19 12:38:15;;;;;;;19.13;11.90;;;6.00;99.90;;;;;;5084372;28;20591;-81
2022/12/19 12:41:19;;;;;;;21.70;12.60;;;6.10;99.90;;;;;;5105698;28;20048;-81
2022/12/19 12:44:07;;;;;;;22.80;11.82;;;6.10;99.90;;;;;;5087618;28;20113;-81
2022/12/19 12:46:44;;;;;;;20.90;11.52;;;6.10;99.90;;;;;;5094647;28;20036;-81
2022/12/19 12:49:19;;;;;;;17.23;10.25;;;6.10;99.90;;;;;;5108268;28;20089;-80
2022/12/19 12:51:46;;;;;;;19.75;11.05;;;6.10;99.90;;;;;;5125411;28;20121;-81
2022/12/19 12:54:15;;;;;;;21.20;10.65;;;6.10;99.90;;;;;;5074970;28;20036;-81
2022/12/19 12:56:44;;;;;;;23.60;11.55;;;6.10;99.90;;;;;;5107889;28;20047;-81
2022/12/19 12:59:20;;;;;;;21.30;10.77;;;6.10;99.90;;;;;;5099408;28;20913;-80
2022/12/19 13:02:12;;;;;;;17.77;10.70;;;6.20;99.90;;;;;;5088690;28;20055;-81
2022/12/19 13:04:52;;;;;;;19.20;11.00;;;6.30;99.90;;;;;;5086859;28;20056;-81
2022/12/19 13:07:40;;;;;;;19.15;11.07;;;6.20;99.90;;;;;;5103730;28;20497;-81
2022/12/19 13:10:31;;;;;;;18.80;10.68;;;6.30;99.90;;;;;;5101183;28;20123;-81
2022/12/19 13:13:16;;;;;;;21.05;11.43;;;6.30;99.90;;;;;;5123317;28;20063;-81